Time;durP1;ratioP1;P1;durP2;ratioP2;P2;SDS_P1;SDS_P2;PMS_P1;PMS_P2;Temp;Humidity;BMP_temperature;BMP_pressure;BME280_temperature;BME280_humidity;BME280_pressure;Samples;Min_cycle;Max_cycle;Signal;HPM_P1;HPM_P2
2023/10/26 00:00:17;;;;;;;0.10;0.10;;;11.80;99.90;;;;;;5070138;28;20729;-78
2023/10/26 00:02:43;;;;;;;0.10;0.10;;;11.80;99.90;;;;;;5062253;28;20181;-79
2023/10/26 00:05:08;;;;;;;0.00;0.00;;;11.70;99.90;;;;;;5071100;28;20553;-78
2023/10/26 00:07:35;;;;;;;0.10;0.10;;;11.70;99.90;;;;;;5070641;28;20213;-78
2023/10/26 00:10:00;;;;;;;0.10;0.10;;;11.60;99.90;;;;;;5065641;28;20623;-78
2023/10/26 00:12:26;;;;;;;0.10;0.10;;;11.60;99.90;;;;;;5067678;28;20211;-78
2023/10/26 00:14:52;;;;;;;0.10;0.10;;;11.60;99.90;;;;;;5065895;28;21143;-78
2023/10/26 00:17:17;;;;;;;0.10;0.10;;;11.60;99.90;;;;;;5069634;28;20216;-78
2023/10/26 00:19:43;;;;;;;0.10;0.10;;;11.60;99.90;;;;;;5069862;28;20209;-78
2023/10/26 00:22:08;;;;;;;0.10;0.10;;;11.70;99.90;;;;;;5070388;28;20202;-78
2023/10/26 00:24:35;;;;;;;0.00;0.00;;;11.60;99.90;;;;;;5064706;28;20205;-78
2023/10/26 00:27:00;;;;;;;0.10;0.10;;;11.60;99.90;;;;;;5068455;28;20199;-78
2023/10/26 00:29:26;;;;;;;0.10;0.10;;;11.50;99.90;;;;;;5070330;28;20238;-78
2023/10/26 00:31:51;;;;;;;0.10;0.10;;;11.40;99.90;;;;;;5070281;28;20234;-78
2023/10/26 00:34:17;;;;;;;0.10;0.10;;;11.40;99.90;;;;;;5069967;28;20196;-78
2023/10/26 00:36:45;;;;;;;0.00;0.00;;;11.30;99.90;;;;;;5067932;28;20272;-79
2023/10/26 00:39:11;;;;;;;0.00;0.00;;;11.30;99.90;;;;;;5069611;28;20201;-78
2023/10/26 00:41:37;;;;;;;0.00;0.00;;;11.30;99.90;;;;;;5065570;28;20640;-78
2023/10/26 00:44:03;;;;;;;0.10;0.10;;;11.30;99.90;;;;;;5068613;28;20522;-78
2023/10/26 00:46:29;;;;;;;0.10;0.10;;;11.30;99.90;;;;;;5062882;28;20271;-78
2023/10/26 00:48:55;;;;;;;0.03;0.03;;;11.30;99.90;;;;;;5068891;28;20303;-78
2023/10/26 00:51:21;;;;;;;0.10;0.10;;;11.40;99.90;;;;;;5069819;28;20189;-78
2023/10/26 00:53:48;;;;;;;0.10;0.10;;;11.40;99.90;;;;;;5069610;28;20181;-78
2023/10/26 00:56:19;;;;;;;0.03;0.03;;;11.40;99.90;;;;;;5069804;28;20193;-78
2023/10/26 00:58:45;;;;;;;0.10;0.10;;;11.40;99.90;;;;;;5069758;28;20204;-78
2023/10/26 01:01:11;;;;;;;0.10;0.10;;;11.50;99.90;;;;;;5069249;28;20212;-78
2023/10/26 01:03:39;;;;;;;0.10;0.10;;;11.40;99.90;;;;;;5064728;28;20177;-78
2023/10/26 01:06:05;;;;;;;0.10;0.10;;;11.40;99.90;;;;;;5068449;28;20657;-78
2023/10/26 01:08:30;;;;;;;0.10;0.10;;;11.40;99.90;;;;;;5066443;28;20204;-78
2023/10/26 01:10:57;;;;;;;0.00;0.00;;;11.40;99.90;;;;;;5069245;28;20204;-78
2023/10/26 01:13:23;;;;;;;0.10;0.10;;;11.40;99.90;;;;;;5069650;28;20180;-77
2023/10/26 01:15:49;;;;;;;0.10;0.10;;;11.40;99.90;;;;;;5067368;28;20189;-78
2023/10/26 01:18:15;;;;;;;0.10;0.10;;;11.50;99.90;;;;;;5068604;28;20578;-78
2023/10/26 01:20:42;;;;;;;0.00;0.00;;;11.50;99.90;;;;;;5062725;28;20217;-78
2023/10/26 01:23:08;;;;;;;0.10;0.10;;;11.50;99.90;;;;;;5067026;28;20222;-79
2023/10/26 01:25:33;;;;;;;0.00;0.00;;;11.50;99.90;;;;;;5068862;28;20599;-78
2023/10/26 01:27:59;;;;;;;0.03;0.03;;;11.50;99.90;;;;;;5065965;28;20181;-78
2023/10/26 01:30:25;;;;;;;0.10;0.10;;;11.50;99.90;;;;;;5069295;28;20296;-78
2023/10/26 01:32:51;;;;;;;0.10;0.10;;;11.50;99.90;;;;;;5062481;28;20185;-78
2023/10/26 01:35:17;;;;;;;0.10;0.10;;;11.40;99.90;;;;;;5069235;28;20560;-78
2023/10/26 01:37:42;;;;;;;0.10;0.10;;;11.50;99.90;;;;;;5069477;28;20208;-78
2023/10/26 01:40:08;;;;;;;0.10;0.10;;;11.50;99.90;;;;;;5068631;28;21272;-78
2023/10/26 01:42:34;;;;;;;0.10;0.10;;;11.50;99.90;;;;;;5067545;28;20220;-78
2023/10/26 01:44:59;;;;;;;0.10;0.10;;;11.50;99.90;;;;;;5068046;28;20258;-78
2023/10/26 01:47:25;;;;;;;0.00;0.00;;;11.60;99.90;;;;;;5067913;28;20660;-79
2023/10/26 01:49:50;;;;;;;0.10;0.10;;;11.50;99.90;;;;;;5063447;28;20233;-78
2023/10/26 01:52:16;;;;;;;0.10;0.10;;;11.50;99.90;;;;;;5067151;28;20264;-79
2023/10/26 01:54:41;;;;;;;0.10;0.10;;;11.50;99.90;;;;;;5062121;28;20177;-78
2023/10/26 01:57:08;;;;;;;0.10;0.10;;;11.50;99.90;;;;;;5067433;28;20187;-78
2023/10/26 01:59:33;;;;;;;0.10;0.10;;;11.60;99.90;;;;;;5066633;28;20629;-78
2023/10/26 02:01:59;;;;;;;0.10;0.10;;;11.60;99.90;;;;;;5063821;28;20200;-78
2023/10/26 02:04:24;;;;;;;0.10;0.10;;;11.60;99.90;;;;;;5068724;28;20883;-78
2023/10/26 02:06:50;;;;;;;0.10;0.10;;;11.60;99.90;;;;;;5069479;28;20254;-78
2023/10/26 02:09:15;;;;;;;0.10;0.10;;;11.60;99.90;;;;;;5068920;28;20369;-78
2023/10/26 02:11:40;;;;;;;0.10;0.10;;;11.60;99.90;;;;;;5068372;28;20208;-78
2023/10/26 02:14:06;;;;;;;0.10;0.10;;;11.60;99.90;;;;;;5068899;28;20710;-78
2023/10/26 02:16:31;;;;;;;0.10;0.10;;;11.60;99.90;;;;;;5068870;28;20196;-78
2023/10/26 02:18:57;;;;;;;0.10;0.10;;;11.60;99.90;;;;;;5069384;28;20208;-78
2023/10/26 02:21:23;;;;;;;0.10;0.10;;;11.60;99.90;;;;;;5070251;28;20262;-79
2023/10/26 02:23:48;;;;;;;0.10;0.10;;;11.60;99.90;;;;;;5072329;28;20225;-78
2023/10/26 02:26:14;;;;;;;0.10;0.10;;;11.60;99.90;;;;;;5064753;28;20185;-78
2023/10/26 02:28:39;;;;;;;0.10;0.10;;;11.60;99.90;;;;;;5070966;28;20196;-78
2023/10/26 02:31:05;;;;;;;0.10;0.10;;;11.50;99.90;;;;;;5066787;28;20195;-78
2023/10/26 02:33:30;;;;;;;0.10;0.10;;;11.60;99.90;;;;;;5071501;28;20248;-78
2023/10/26 02:35:56;;;;;;;0.07;0.07;;;11.50;99.90;;;;;;5064068;28;20180;-78
2023/10/26 02:38:21;;;;;;;0.10;0.10;;;11.50;99.90;;;;;;5071586;28;20189;-78
2023/10/26 02:40:47;;;;;;;0.10;0.10;;;11.50;99.90;;;;;;5068802;28;20212;-78
2023/10/26 02:43:12;;;;;;;0.10;0.10;;;11.50;99.90;;;;;;5064678;28;20318;-78
2023/10/26 02:45:38;;;;;;;0.10;0.10;;;11.50;99.90;;;;;;5071358;28;20275;-78
2023/10/26 02:48:03;;;;;;;0.10;0.10;;;11.50;99.90;;;;;;5068531;28;20181;-78
2023/10/26 02:50:29;;;;;;;0.10;0.10;;;11.50;99.90;;;;;;5066863;28;20204;-79
2023/10/26 02:52:54;;;;;;;0.10;0.10;;;11.50;99.90;;;;;;5071504;28;20242;-78
2023/10/26 02:55:20;;;;;;;0.10;0.10;;;11.50;99.90;;;;;;5070775;28;20193;-78
2023/10/26 02:57:45;;;;;;;0.10;0.10;;;11.50;99.90;;;;;;5071132;28;20308;-78
2023/10/26 03:00:12;;;;;;;0.10;0.10;;;11.50;99.90;;;;;;5065858;28;20217;-78
2023/10/26 03:02:39;;;;;;;0.10;0.10;;;11.50;99.90;;;;;;5070779;28;20185;-79
2023/10/26 03:05:04;;;;;;;0.10;0.10;;;11.50;99.90;;;;;;5066020;28;20188;-78
2023/10/26 03:07:31;;;;;;;0.10;0.10;;;11.50;99.90;;;;;;5067813;28;20185;-78
2023/10/26 03:09:56;;;;;;;0.10;0.10;;;11.40;99.90;;;;;;5071060;28;20250;-78
2023/10/26 03:12:22;;;;;;;0.10;0.10;;;11.30;99.90;;;;;;5063331;28;20197;-78
2023/10/26 03:14:48;;;;;;;0.10;0.10;;;11.20;99.90;;;;;;5070824;28;20549;-78
2023/10/26 03:17:15;;;;;;;0.10;0.10;;;11.10;99.90;;;;;;5071035;28;20197;-78
2023/10/26 03:19:44;;;;;;;0.10;0.10;;;11.10;99.90;;;;;;5065848;28;20676;-78
2023/10/26 03:22:10;;;;;;;0.10;0.10;;;11.00;99.90;;;;;;5068615;28;20197;-78
2023/10/26 03:24:36;;;;;;;0.10;0.10;;;10.90;99.90;;;;;;5066391;28;20209;-78
2023/10/26 03:27:01;;;;;;;0.10;0.10;;;10.90;99.90;;;;;;5065847;28;20223;-78
2023/10/26 03:29:27;;;;;;;0.00;0.00;;;10.80;99.90;;;;;;5066065;28;20200;-78
2023/10/26 03:31:52;;;;;;;0.10;0.10;;;10.80;99.90;;;;;;5071148;28;20278;-78
2023/10/26 03:34:18;;;;;;;0.10;0.10;;;10.80;99.90;;;;;;5070310;28;20194;-78
2023/10/26 03:36:43;;;;;;;0.10;0.10;;;10.70;99.90;;;;;;5070579;28;20193;-78
2023/10/26 03:39:09;;;;;;;0.10;0.10;;;10.70;99.90;;;;;;5070236;28;20251;-78
2023/10/26 03:41:34;;;;;;;0.10;0.10;;;10.70;99.90;;;;;;5068119;28;20208;-78
2023/10/26 03:44:00;;;;;;;0.10;0.10;;;10.60;99.90;;;;;;5068164;28;20188;-78
2023/10/26 03:46:26;;;;;;;0.00;0.00;;;10.60;99.90;;;;;;5063875;28;20186;-78
2023/10/26 03:48:51;;;;;;;0.10;0.10;;;10.60;99.90;;;;;;5070551;28;20219;-78
2023/10/26 03:51:17;;;;;;;0.10;0.10;;;10.60;99.90;;;;;;5068321;28;20568;-77
2023/10/26 03:53:42;;;;;;;0.00;0.00;;;10.50;99.90;;;;;;5071051;28;20208;-78
2023/10/26 03:56:08;;;;;;;0.10;0.10;;;10.50;99.90;;;;;;5065376;28;20239;-78
2023/10/26 03:58:33;;;;;;;0.00;0.00;;;10.50;99.90;;;;;;5068518;28;20268;-78
2023/10/26 04:01:00;;;;;;;0.10;0.10;;;10.60;99.90;;;;;;5069104;28;20771;-78
2023/10/26 04:03:26;;;;;;;0.10;0.10;;;10.60;99.90;;;;;;5068936;28;20189;-78
2023/10/26 04:05:52;;;;;;;0.00;0.00;;;10.60;99.90;;;;;;5063503;28;20237;-78
2023/10/26 04:08:18;;;;;;;0.10;0.10;;;10.70;99.90;;;;;;5068210;28;20177;-77
2023/10/26 04:10:43;;;;;;;0.10;0.10;;;10.70;99.90;;;;;;5067917;28;20692;-78
2023/10/26 04:13:09;;;;;;;0.10;0.10;;;10.60;99.90;;;;;;5066191;28;20180;-78
2023/10/26 04:15:35;;;;;;;0.10;0.10;;;10.70;99.90;;;;;;5069118;28;20217;-78
2023/10/26 04:18:04;;;;;;;0.10;0.10;;;10.60;99.90;;;;;;5061799;28;20544;-78
2023/10/26 04:20:30;;;;;;;0.10;0.10;;;10.60;99.90;;;;;;5068072;28;20820;-78
2023/10/26 04:22:55;;;;;;;0.00;0.00;;;10.60;99.90;;;;;;5068585;28;20185;-78
2023/10/26 04:25:21;;;;;;;0.10;0.10;;;10.60;99.90;;;;;;5065431;28;20209;-78
2023/10/26 04:27:47;;;;;;;0.10;0.10;;;10.60;99.90;;;;;;5068179;28;21837;-78
2023/10/26 04:30:12;;;;;;;0.10;0.10;;;10.60;99.90;;;;;;5068688;28;20394;-78
2023/10/26 04:32:41;;;;;;;0.00;0.00;;;10.60;99.90;;;;;;5064839;28;20184;-78
2023/10/26 04:35:07;;;;;;;0.10;0.10;;;10.60;99.90;;;;;;5069796;28;20264;-79
2023/10/26 04:37:33;;;;;;;0.03;0.03;;;10.60;99.90;;;;;;5068405;28;20222;-79
2023/10/26 04:39:59;;;;;;;0.10;0.10;;;10.70;99.90;;;;;;5068339;28;20236;-79
2023/10/26 04:42:24;;;;;;;0.10;0.10;;;10.70;99.90;;;;;;5067799;28;20277;-79
2023/10/26 04:44:50;;;;;;;0.10;0.10;;;10.60;99.90;;;;;;5065688;28;20181;-79
2023/10/26 04:47:15;;;;;;;0.07;0.07;;;10.70;99.90;;;;;;5064269;28;20582;-78
2023/10/26 04:49:41;;;;;;;0.10;0.10;;;10.80;99.90;;;;;;5064978;28;20250;-78
2023/10/26 04:52:08;;;;;;;0.10;0.10;;;10.80;99.90;;;;;;5068755;28;20185;-79
2023/10/26 04:54:33;;;;;;;0.10;0.10;;;10.90;99.90;;;;;;5067789;28;20204;-78
2023/10/26 04:56:59;;;;;;;0.00;0.00;;;10.90;99.90;;;;;;5068950;28;20184;-78
2023/10/26 04:59:24;;;;;;;0.10;0.10;;;10.90;99.90;;;;;;5068709;28;20215;-78
2023/10/26 05:01:50;;;;;;;0.10;0.10;;;11.00;99.90;;;;;;5068655;28;20288;-78
2023/10/26 05:04:15;;;;;;;0.10;0.10;;;11.00;99.90;;;;;;5067519;28;20185;-78
2023/10/26 05:06:41;;;;;;;0.10;0.10;;;11.00;99.90;;;;;;5066441;28;20193;-79
2023/10/26 05:09:06;;;;;;;0.10;0.10;;;11.10;99.90;;;;;;5062618;28;20422;-78
2023/10/26 05:11:32;;;;;;;0.10;0.10;;;11.10;99.90;;;;;;5068650;28;20789;-79
2023/10/26 05:13:58;;;;;;;0.10;0.10;;;11.10;99.90;;;;;;5064992;28;20238;-78
2023/10/26 05:16:23;;;;;;;0.10;0.10;;;11.10;99.90;;;;;;5066812;28;20596;-79
2023/10/26 05:18:49;;;;;;;0.10;0.10;;;11.20;99.90;;;;;;5068821;28;20177;-78
2023/10/26 05:21:14;;;;;;;0.10;0.10;;;11.20;99.90;;;;;;5066655;28;20223;-78
2023/10/26 05:23:40;;;;;;;0.10;0.10;;;11.20;99.90;;;;;;5067553;28;20201;-78
2023/10/26 05:26:06;;;;;;;0.10;0.10;;;11.10;99.90;;;;;;5070110;28;20257;-78
2023/10/26 05:28:32;;;;;;;0.10;0.10;;;11.20;99.90;;;;;;5062115;28;20278;-78
2023/10/26 05:30:57;;;;;;;0.10;0.10;;;11.20;99.90;;;;;;5070264;28;20267;-78
2023/10/26 05:33:23;;;;;;;0.10;0.10;;;11.20;99.90;;;;;;5061958;28;20275;-78
2023/10/26 05:35:48;;;;;;;0.10;0.10;;;11.20;99.90;;;;;;5064218;28;20567;-78
2023/10/26 05:38:18;;;;;;;0.10;0.10;;;11.20;99.90;;;;;;5063700;28;20276;-79
2023/10/26 05:40:53;;;;;;;0.10;0.10;;;11.20;99.90;;;;;;5064857;28;20205;-80
2023/10/26 05:43:19;;;;;;;0.10;0.10;;;11.20;99.90;;;;;;5065843;28;20172;-78
2023/10/26 05:45:44;;;;;;;0.10;0.10;;;11.20;99.90;;;;;;5067387;28;20186;-78
2023/10/26 05:48:10;;;;;;;0.10;0.10;;;11.20;99.90;;;;;;5063576;28;20596;-78
2023/10/26 05:50:41;;;;;;;0.10;0.10;;;11.20;99.90;;;;;;5067022;28;20210;-78
2023/10/26 05:53:10;;;;;;;0.00;0.00;;;11.20;99.90;;;;;;5066766;28;20203;-78
2023/10/26 05:55:36;;;;;;;0.00;0.00;;;11.20;99.90;;;;;;5067614;28;20238;-78
2023/10/26 05:58:03;;;;;;;0.10;0.10;;;11.20;99.90;;;;;;5068574;28;20186;-78
2023/10/26 06:00:28;;;;;;;0.10;0.10;;;11.20;99.90;;;;;;5066321;28;20200;-78
2023/10/26 06:02:54;;;;;;;0.10;0.10;;;11.20;99.90;;;;;;5067215;28;20177;-78
2023/10/26 06:05:19;;;;;;;0.10;0.10;;;11.10;99.90;;;;;;5068336;28;20235;-78
2023/10/26 06:07:45;;;;;;;0.10;0.10;;;11.10;99.90;;;;;;5068444;28;20179;-77
2023/10/26 06:10:11;;;;;;;0.10;0.10;;;11.00;99.90;;;;;;5064810;28;20200;-78
2023/10/26 06:12:37;;;;;;;0.10;0.10;;;11.00;99.90;;;;;;5067352;28;20608;-78
2023/10/26 06:15:06;;;;;;;0.00;0.00;;;11.10;99.90;;;;;;5066961;28;20212;-77
2023/10/26 06:17:32;;;;;;;0.10;0.10;;;11.10;99.90;;;;;;5062192;28;20261;-77
2023/10/26 06:19:57;;;;;;;0.10;0.10;;;11.00;99.90;;;;;;5061819;28;20208;-77
2023/10/26 06:22:23;;;;;;;0.10;0.10;;;11.10;99.90;;;;;;5066799;28;21948;-77
2023/10/26 06:24:48;;;;;;;0.10;0.10;;;11.10;99.90;;;;;;5058165;28;20185;-76
2023/10/26 06:27:14;;;;;;;0.03;0.03;;;11.10;99.90;;;;;;5063184;28;20184;-78
2023/10/26 06:29:42;;;;;;;0.10;0.10;;;11.20;99.90;;;;;;5066247;28;20256;-77
2023/10/26 06:32:07;;;;;;;0.10;0.10;;;11.20;99.90;;;;;;5067453;28;20567;-77
2023/10/26 06:34:32;;;;;;;0.10;0.10;;;11.10;99.90;;;;;;5067020;28;20192;-78
2023/10/26 06:36:58;;;;;;;0.00;0.00;;;11.20;99.90;;;;;;5068730;28;20189;-78
2023/10/26 06:39:24;;;;;;;0.10;0.10;;;11.20;99.90;;;;;;5061767;28;20219;-77
2023/10/26 06:41:50;;;;;;;0.07;0.07;;;11.30;99.90;;;;;;5067984;28;20636;-78
2023/10/26 06:44:15;;;;;;;0.10;0.10;;;11.40;99.90;;;;;;5070297;28;20180;-77
2023/10/26 06:46:40;;;;;;;0.10;0.10;;;11.40;99.90;;;;;;5064288;28;20188;-78
2023/10/26 06:49:06;;;;;;;0.10;0.10;;;11.40;99.90;;;;;;5065599;28;20246;-78
2023/10/26 06:51:31;;;;;;;0.10;0.10;;;11.40;99.90;;;;;;5061259;28;20276;-78
2023/10/26 06:53:57;;;;;;;0.10;0.10;;;11.30;99.90;;;;;;5067538;28;20564;-78
2023/10/26 06:56:23;;;;;;;0.10;0.10;;;11.30;99.90;;;;;;5066763;28;20212;-77
2023/10/26 06:58:48;;;;;;;0.10;0.10;;;11.30;99.90;;;;;;5062979;28;20185;-77
2023/10/26 07:01:14;;;;;;;0.10;0.10;;;11.20;99.90;;;;;;5061060;28;20289;-78
2023/10/26 07:03:39;;;;;;;0.10;0.10;;;11.30;99.90;;;;;;5066558;28;20713;-78
2023/10/26 07:06:05;;;;;;;0.10;0.10;;;11.40;99.90;;;;;;5064219;28;20264;-77
2023/10/26 07:08:32;;;;;;;0.10;0.10;;;11.40;99.90;;;;;;5065762;28;20216;-77
2023/10/26 07:10:59;;;;;;;0.10;0.10;;;11.30;99.90;;;;;;5068828;28;20210;-77
2023/10/26 07:13:25;;;;;;;0.00;0.00;;;11.30;99.90;;;;;;5064079;28;20715;-77
2023/10/26 07:15:50;;;;;;;0.10;0.10;;;11.30;99.90;;;;;;5064898;28;20276;-76
2023/10/26 07:18:18;;;;;;;0.10;0.10;;;11.30;99.90;;;;;;5064783;28;20275;-77
2023/10/26 07:20:49;;;;;;;0.10;0.10;;;11.30;99.90;;;;;;5070167;28;20204;-77
2023/10/26 07:23:16;;;;;;;0.10;0.10;;;11.30;99.90;;;;;;5066667;28;20687;-77
2023/10/26 07:25:41;;;;;;;0.10;0.10;;;11.30;99.90;;;;;;5064867;28;20273;-77
2023/10/26 07:28:07;;;;;;;0.00;0.00;;;11.40;99.90;;;;;;5065177;28;20740;-78
2023/10/26 07:30:38;;;;;;;0.10;0.10;;;11.40;99.90;;;;;;5067842;28;20204;-78
2023/10/26 07:33:04;;;;;;;0.10;0.10;;;11.50;99.90;;;;;;5066953;28;20196;-79
2023/10/26 07:35:29;;;;;;;0.10;0.10;;;11.70;99.90;;;;;;5069216;28;20181;-77
2023/10/26 07:37:55;;;;;;;0.10;0.10;;;12.00;99.90;;;;;;5069354;28;20181;-78
2023/10/26 07:40:20;;;;;;;0.00;0.00;;;12.20;99.90;;;;;;5067855;28;20296;-77
2023/10/26 07:42:46;;;;;;;0.00;0.00;;;12.40;99.90;;;;;;5066184;28;20178;-76
2023/10/26 07:45:12;;;;;;;0.10;0.10;;;12.60;99.90;;;;;;5065754;28;20675;-76
2023/10/26 07:47:37;;;;;;;0.00;0.00;;;12.90;99.90;;;;;;5068491;28;20269;-77
2023/10/26 07:50:03;;;;;;;0.00;0.00;;;13.10;99.90;;;;;;5065566;28;20283;-77
2023/10/26 07:52:29;;;;;;;0.10;0.10;;;13.10;99.90;;;;;;5070311;28;20204;-77
2023/10/26 07:54:54;;;;;;;0.10;0.10;;;13.20;99.90;;;;;;5068910;28;20640;-76
2023/10/26 07:57:20;;;;;;;0.10;0.10;;;13.30;99.90;;;;;;5062404;28;20355;-77
2023/10/26 07:59:46;;;;;;;0.10;0.10;;;13.30;99.90;;;;;;5070761;28;20197;-77
2023/10/26 08:02:11;;;;;;;0.10;0.10;;;13.40;99.90;;;;;;5068252;28;20228;-76
2023/10/26 08:04:37;;;;;;;0.10;0.10;;;13.40;99.90;;;;;;5065717;28;20658;-77
2023/10/26 08:07:02;;;;;;;0.10;0.10;;;13.50;99.90;;;;;;5065498;28;20747;-77
2023/10/26 08:09:31;;;;;;;0.10;0.10;;;13.40;99.90;;;;;;5070503;28;20247;-77
2023/10/26 08:11:58;;;;;;;0.10;0.10;;;13.30;99.90;;;;;;5068974;28;20196;-78
2023/10/26 08:14:24;;;;;;;0.10;0.10;;;13.50;99.90;;;;;;5062919;28;20270;-77
2023/10/26 08:16:49;;;;;;;0.10;0.10;;;13.60;99.90;;;;;;5071051;28;20182;-77
2023/10/26 08:19:15;;;;;;;0.10;0.10;;;13.40;99.90;;;;;;5064175;28;20199;-77
2023/10/26 08:21:40;;;;;;;0.10;0.10;;;13.30;99.90;;;;;;5068372;28;20217;-77
2023/10/26 08:24:06;;;;;;;0.10;0.10;;;13.50;99.90;;;;;;5069848;28;20650;-77
2023/10/26 08:26:31;;;;;;;0.10;0.10;;;13.60;99.90;;;;;;5069610;28;20186;-77
2023/10/26 08:28:57;;;;;;;0.10;0.10;;;13.90;99.90;;;;;;5068932;28;20294;-77
2023/10/26 08:31:22;;;;;;;0.10;0.10;;;14.00;99.90;;;;;;5069297;28;20669;-77
2023/10/26 08:33:48;;;;;;;0.10;0.10;;;14.00;99.90;;;;;;5065807;28;20191;-77
2023/10/26 08:36:13;;;;;;;0.10;0.10;;;14.00;99.90;;;;;;5066955;28;20188;-77
2023/10/26 08:38:39;;;;;;;0.10;0.10;;;14.00;99.90;;;;;;5066205;28;20191;-77
2023/10/26 08:41:05;;;;;;;0.10;0.10;;;13.90;99.90;;;;;;5068892;28;20203;-77
2023/10/26 08:43:33;;;;;;;0.10;0.10;;;13.90;99.90;;;;;;5069573;28;20191;-77
2023/10/26 08:46:00;;;;;;;0.10;0.10;;;13.70;99.90;;;;;;5070133;28;20197;-76
2023/10/26 08:48:28;;;;;;;0.10;0.10;;;13.60;99.90;;;;;;5068002;28;20426;-77
2023/10/26 08:50:55;;;;;;;0.10;0.10;;;13.80;99.90;;;;;;5068377;28;20679;-77
2023/10/26 08:53:21;;;;;;;0.10;0.10;;;13.70;99.90;;;;;;5063227;28;20240;-77
2023/10/26 08:55:52;;;;;;;0.10;0.10;;;13.80;99.90;;;;;;5069837;28;20658;-77
2023/10/26 08:58:20;;;;;;;0.10;0.10;;;14.10;99.90;;;;;;5064412;28;20693;-77
2023/10/26 09:00:45;;;;;;;0.10;0.10;;;14.50;99.90;;;;;;5069093;28;20248;-77
2023/10/26 09:03:11;;;;;;;0.10;0.10;;;14.90;99.90;;;;;;5061961;28;20194;-77
2023/10/26 09:05:55;;;;;;;0.10;0.10;;;14.90;99.90;;;;;;5061614;28;20210;-77
2023/10/26 09:08:23;;;;;;;0.10;0.10;;;14.90;99.90;;;;;;5062946;28;20231;-77
2023/10/26 09:10:49;;;;;;;0.10;0.10;;;15.20;99.90;;;;;;5065259;28;20236;-77
2023/10/26 09:13:24;;;;;;;0.10;0.10;;;15.70;99.90;;;;;;5067671;28;20277;-77
2023/10/26 09:15:51;;;;;;;0.10;0.10;;;15.80;99.90;;;;;;5066683;28;20199;-76
2023/10/26 09:18:17;;;;;;;0.10;0.10;;;15.70;99.90;;;;;;5062629;28;20235;-77
2023/10/26 09:20:59;;;;;;;0.10;0.10;;;15.70;99.90;;;;;;5067996;28;20692;-78
2023/10/26 09:23:33;;;;;;;0.10;0.10;;;15.40;99.90;;;;;;5067248;28;20266;-78
2023/10/26 09:26:03;;;;;;;0.10;0.10;;;15.20;99.90;;;;;;5066896;28;20194;-77
2023/10/26 09:28:29;;;;;;;0.10;0.10;;;15.00;99.90;;;;;;5067172;28;20216;-78
2023/10/26 09:30:59;;;;;;;0.10;0.10;;;15.10;99.90;;;;;;5067751;28;20263;-77
2023/10/26 09:33:26;;;;;;;0.10;0.10;;;14.90;99.90;;;;;;5066767;28;20187;-77
2023/10/26 09:35:52;;;;;;;0.10;0.10;;;14.90;99.90;;;;;;5067057;28;20199;-77
2023/10/26 09:38:34;;;;;;;0.10;0.10;;;14.90;99.90;;;;;;5065069;28;20188;-77
2023/10/26 09:41:00;;;;;;;0.03;0.03;;;14.80;99.90;;;;;;5067997;28;20679;-77
2023/10/26 09:43:26;;;;;;;0.10;0.10;;;14.50;99.90;;;;;;5068349;28;20207;-78
2023/10/26 09:45:51;;;;;;;0.10;0.10;;;14.30;99.90;;;;;;5062399;28;20182;-78
2023/10/26 09:48:18;;;;;;;0.10;0.10;;;14.30;99.90;;;;;;5065973;28;20188;-78
2023/10/26 09:50:45;;;;;;;0.10;0.10;;;14.30;99.90;;;;;;5066316;28;20206;-77
2023/10/26 09:53:11;;;;;;;0.10;0.10;;;14.30;99.90;;;;;;5066042;28;20273;-78
2023/10/26 09:55:37;;;;;;;0.10;0.10;;;14.30;99.90;;;;;;5066736;28;20185;-78
2023/10/26 09:58:05;;;;;;;0.10;0.10;;;14.30;99.90;;;;;;5066016;28;20195;-78
2023/10/26 10:00:33;;;;;;;0.10;0.10;;;14.40;99.90;;;;;;5066930;28;20255;-78
2023/10/26 10:03:16;;;;;;;0.10;0.10;;;14.40;99.90;;;;;;5066125;28;20242;-78
2023/10/26 10:05:43;;;;;;;0.10;0.10;;;14.40;99.90;;;;;;5068285;28;20534;-78
2023/10/26 10:08:09;;;;;;;0.10;0.10;;;14.30;99.90;;;;;;5067883;28;20271;-78
2023/10/26 10:10:36;;;;;;;0.10;0.10;;;14.40;99.90;;;;;;5062624;28;20216;-77
2023/10/26 10:13:02;;;;;;;0.10;0.10;;;14.40;99.90;;;;;;5064949;28;20277;-78
2023/10/26 10:15:36;;;;;;;0.00;0.00;;;14.40;99.90;;;;;;5065824;28;20728;-77
2023/10/26 10:18:08;;;;;;;0.10;0.10;;;14.30;99.90;;;;;;5067322;28;20275;-77
2023/10/26 10:20:36;;;;;;;0.10;0.10;;;14.20;99.90;;;;;;5064419;28;20808;-77
2023/10/26 10:23:02;;;;;;;0.10;0.10;;;14.20;99.90;;;;;;5059378;28;20185;-77
2023/10/26 10:25:50;;;;;;;0.10;0.10;;;14.30;99.90;;;;;;5065299;28;20602;-77
2023/10/26 10:28:16;;;;;;;0.10;0.10;;;14.30;99.90;;;;;;5067880;28;20659;-77
2023/10/26 10:30:59;;;;;;;0.10;0.10;;;14.40;99.90;;;;;;5057817;28;20302;-77
2023/10/26 10:33:27;;;;;;;0.10;0.10;;;14.40;99.90;;;;;;5065686;28;20195;-77
2023/10/26 10:36:04;;;;;;;0.10;0.10;;;14.50;99.90;;;;;;5063474;28;20209;-77
2023/10/26 10:38:30;;;;;;;0.10;0.10;;;14.50;99.90;;;;;;5060208;28;20183;-79
2023/10/26 10:40:59;;;;;;;0.10;0.10;;;14.50;99.90;;;;;;5061501;28;20204;-81
2023/10/26 10:43:30;;;;;;;0.10;0.10;;;14.50;99.90;;;;;;5063518;28;20190;-81
2023/10/26 10:45:56;;;;;;;0.10;0.10;;;14.40;99.90;;;;;;5065163;28;20832;-78
2023/10/26 10:48:21;;;;;;;0.10;0.10;;;14.50;99.90;;;;;;5068844;28;20218;-80
2023/10/26 10:50:50;;;;;;;0.10;0.10;;;14.40;99.90;;;;;;5073133;28;20238;-81
2023/10/26 10:53:16;;;;;;;0.10;0.10;;;14.40;99.90;;;;;;5068542;28;20215;-79
2023/10/26 10:55:43;;;;;;;0.00;0.00;;;14.30;99.90;;;;;;5070126;28;20242;-82
2023/10/26 10:58:09;;;;;;;0.10;0.10;;;14.30;99.90;;;;;;5063637;28;20233;-82
2023/10/26 11:00:44;;;;;;;0.10;0.10;;;14.30;99.90;;;;;;5066259;28;20211;-78
2023/10/26 11:03:19;;;;;;;0.10;0.10;;;14.40;99.90;;;;;;5070096;28;20183;-79
2023/10/26 11:05:45;;;;;;;0.10;0.10;;;14.30;99.90;;;;;;5070888;28;20400;-79
2023/10/26 11:08:11;;;;;;;0.10;0.10;;;14.30;99.90;;;;;;5073243;28;20642;-79
2023/10/26 11:10:38;;;;;;;0.10;0.10;;;14.40;99.90;;;;;;5072204;28;20212;-78
2023/10/26 11:13:04;;;;;;;0.10;0.10;;;14.40;99.90;;;;;;5076251;28;20192;-78
2023/10/26 11:15:37;;;;;;;0.10;0.10;;;14.40;99.90;;;;;;5077282;28;20221;-78
2023/10/26 11:18:04;;;;;;;0.10;0.10;;;14.30;99.90;;;;;;5074448;28;21187;-78
2023/10/26 11:20:41;;;;;;;0.10;0.10;;;14.30;99.90;;;;;;5074313;28;20210;-78
2023/10/26 11:23:14;;;;;;;0.10;0.10;;;14.20;99.90;;;;;;5072215;28;20191;-77
2023/10/26 11:25:40;;;;;;;0.10;0.10;;;14.30;99.90;;;;;;5069171;28;20275;-78
2023/10/26 11:28:07;;;;;;;0.10;0.10;;;14.30;99.90;;;;;;5070785;28;20262;-78
2023/10/26 11:30:52;;;;;;;0.10;0.10;;;14.30;99.90;;;;;;5063289;28;20591;-79
2023/10/26 11:33:39;;;;;;;0.10;0.10;;;14.30;99.90;;;;;;5066822;28;20184;-78
2023/10/26 11:36:10;;;;;;;0.10;0.10;;;14.10;99.90;;;;;;5071816;28;20206;-78
2023/10/26 11:38:36;;;;;;;0.00;0.00;;;14.10;99.90;;;;;;5073651;28;20187;-78
2023/10/26 11:41:02;;;;;;;0.10;0.10;;;14.10;99.90;;;;;;5069716;28;20201;-78
2023/10/26 11:43:34;;;;;;;0.10;0.10;;;14.10;99.90;;;;;;5071577;28;20222;-77
2023/10/26 11:46:02;;;;;;;0.10;0.10;;;14.10;99.90;;;;;;5068857;28;20854;-79
2023/10/26 11:48:30;;;;;;;0.10;0.10;;;14.00;99.90;;;;;;5068941;28;20542;-78
2023/10/26 11:50:57;;;;;;;0.10;0.10;;;13.90;99.90;;;;;;5059871;28;20256;-78
2023/10/26 11:53:23;;;;;;;0.10;0.10;;;13.90;99.90;;;;;;5068615;28;20196;-79
2023/10/26 11:55:50;;;;;;;0.10;0.10;;;14.00;99.90;;;;;;5070227;28;20769;-78
2023/10/26 11:58:16;;;;;;;0.10;0.10;;;13.80;99.90;;;;;;5070376;28;20680;-78
2023/10/26 12:00:44;;;;;;;0.10;0.10;;;13.90;99.90;;;;;;5067951;28;20251;-79
2023/10/26 12:03:10;;;;;;;0.10;0.10;;;13.60;99.90;;;;;;5069674;28;20188;-78
2023/10/26 12:05:36;;;;;;;0.10;0.10;;;13.70;99.90;;;;;;5064807;28;20197;-78
2023/10/26 12:08:01;;;;;;;0.03;0.03;;;13.90;99.90;;;;;;5069033;28;20635;-78
2023/10/26 12:10:27;;;;;;;0.10;0.10;;;14.10;99.90;;;;;;5064815;28;20217;-79
2023/10/26 12:12:53;;;;;;;0.10;0.10;;;14.10;99.90;;;;;;5070116;28;20183;-78
2023/10/26 12:15:22;;;;;;;0.07;0.07;;;14.20;99.90;;;;;;5066493;28;20652;-79
2023/10/26 12:17:48;;;;;;;0.10;0.10;;;14.20;99.90;;;;;;5067546;28;20207;-78
2023/10/26 12:20:14;;;;;;;3.30;2.77;;;13.90;99.90;;;;;;5068037;28;20216;-78
2023/10/26 12:22:40;;;;;;;0.10;0.10;;;13.90;99.90;;;;;;5069083;28;20191;-78
2023/10/26 12:25:07;;;;;;;0.10;0.10;;;14.00;99.90;;;;;;5061918;28;21118;-79
2023/10/26 12:27:34;;;;;;;0.00;0.00;;;14.30;99.90;;;;;;5062908;28;20188;-79
2023/10/26 12:30:01;;;;;;;0.03;0.03;;;14.10;99.90;;;;;;5059593;28;20216;-79
2023/10/26 12:32:26;;;;;;;0.10;0.10;;;14.40;99.90;;;;;;5068178;28;20228;-79
2023/10/26 12:34:52;;;;;;;0.10;0.10;;;14.60;99.90;;;;;;5067508;28;20218;-79
2023/10/26 12:37:18;;;;;;;0.10;0.10;;;14.80;99.90;;;;;;5068067;28;20203;-78
2023/10/26 12:39:43;;;;;;;0.10;0.10;;;14.70;99.90;;;;;;5060315;28;20205;-79
2023/10/26 12:42:09;;;;;;;0.10;0.10;;;14.60;99.90;;;;;;5066056;28;20215;-78
2023/10/26 12:44:35;;;;;;;0.10;0.10;;;14.70;99.90;;;;;;5056539;28;20279;-78